createdAt,value
2023-02-15T00:02:03.848Z,34.08
2023-02-15T00:04:45.584Z,28.23
2023-02-15T00:07:15.547Z,31.25
2023-02-15T00:09:44.129Z,30.13
2023-02-15T00:12:12.283Z,28.67
2023-02-15T00:14:40.060Z,28.20
2023-02-15T00:17:07.767Z,28.05
2023-02-15T00:19:35.745Z,33.97
2023-02-15T00:22:03.548Z,31.27
2023-02-15T00:24:32.709Z,29.35
2023-02-15T00:27:00.540Z,26.75
2023-02-15T00:29:29.083Z,32.03
2023-02-15T00:31:56.794Z,36.10
2023-02-15T00:34:28.007Z,26.63
2023-02-15T00:36:56.179Z,32.25
2023-02-15T00:39:24.804Z,27.23
2023-02-15T00:41:53.995Z,24.85
2023-02-15T00:44:21.758Z,31.55
2023-02-15T00:46:49.559Z,23.58
2023-02-15T00:49:17.291Z,29.40
2023-02-15T00:51:45.087Z,29.77
2023-02-15T00:54:12.878Z,33.50
2023-02-15T00:56:40.630Z,25.83
2023-02-15T00:59:10.534Z,25.63
2023-02-15T01:01:38.472Z,26.10
2023-02-15T01:04:06.624Z,27.70
2023-02-15T01:06:34.364Z,24.30
2023-02-15T01:09:02.136Z,24.73
2023-02-15T01:11:29.930Z,25.40
2023-02-15T01:13:59.300Z,21.90
2023-02-15T01:16:30.284Z,19.42
2023-02-15T01:18:58.685Z,30.00
2023-02-15T01:21:27.927Z,28.67
2023-02-15T01:23:55.636Z,31.75
2023-02-15T01:26:23.594Z,21.92
2023-02-15T01:28:51.283Z,22.45
2023-02-15T01:31:22.187Z,21.13
2023-02-15T01:33:51.843Z,24.30
2023-02-15T01:36:19.707Z,25.20
2023-02-15T01:38:47.712Z,29.58
2023-02-15T01:41:25.013Z,20.38
2023-02-15T01:43:55.303Z,23.50
2023-02-15T01:46:29.731Z,19.17
2023-02-15T01:49:04.294Z,27.48
2023-02-15T01:51:35.714Z,22.00
2023-02-15T01:54:07.584Z,31.73
2023-02-15T01:56:38.200Z,25.92
2023-02-15T01:59:10.377Z,27.02
2023-02-15T02:01:39.616Z,24.45
2023-02-15T02:04:15.497Z,20.25
2023-02-15T02:06:43.573Z,27.63
2023-02-15T02:09:11.696Z,21.05
2023-02-15T02:11:41.293Z,25.00
2023-02-15T02:14:09.969Z,24.80
2023-02-15T02:16:49.076Z,28.65
2023-02-15T02:20:05.995Z,23.15
2023-02-15T02:23:06.299Z,22.17
2023-02-15T02:26:07.366Z,21.88
2023-02-15T02:29:00.170Z,24.42
2023-02-15T02:31:50.612Z,23.55
2023-02-15T02:34:27.644Z,27.20
2023-02-15T02:37:01.638Z,24.65
2023-02-15T02:39:39.843Z,29.63
2023-02-15T02:42:14.055Z,27.17
2023-02-15T02:44:45.512Z,26.92
2023-02-15T02:47:19.187Z,25.58
2023-02-15T02:49:48.434Z,28.20
2023-02-15T02:52:41.588Z,30.02
2023-02-15T02:55:13.551Z,20.23
2023-02-15T02:57:49.248Z,22.30
2023-02-15T03:00:19.550Z,21.25
2023-02-15T03:02:52.638Z,25.58
2023-02-15T03:05:26.168Z,25.80
2023-02-15T03:07:55.848Z,22.80
2023-02-15T03:10:25.821Z,22.58
2023-02-15T03:12:54.367Z,27.15
2023-02-15T03:15:25.209Z,21.48
2023-02-15T03:17:58.348Z,29.33
2023-02-15T03:20:31.546Z,22.05
2023-02-15T03:23:03.711Z,20.90
2023-02-15T03:25:36.194Z,18.52
2023-02-15T03:28:07.229Z,25.33
2023-02-15T03:30:37.194Z,28.65
2023-02-15T03:33:07.427Z,18.10
2023-02-15T03:35:46.020Z,21.27
2023-02-15T03:38:19.409Z,23.17
2023-02-15T03:41:06.762Z,17.77
2023-02-15T03:43:44.715Z,30.30
2023-02-15T03:46:19.481Z,21.48
2023-02-15T03:48:53.130Z,25.75
2023-02-15T03:51:37.463Z,23.63
2023-02-15T03:54:07.671Z,17.05
2023-02-15T03:56:37.707Z,18.63
2023-02-15T03:59:24.090Z,34.17
2023-02-15T04:02:06.972Z,21.08
2023-02-15T04:04:37.803Z,22.27
2023-02-15T04:07:09.762Z,23.98
2023-02-15T04:09:55.515Z,18.90
2023-02-15T04:12:23.372Z,22.50
2023-02-15T04:15:09.067Z,19.63
2023-02-15T04:17:38.161Z,20.80
2023-02-15T04:20:24.327Z,20.42
2023-02-15T04:23:11.175Z,18.40
2023-02-15T04:25:39.022Z,21.23
2023-02-15T04:28:08.590Z,26.55
2023-02-15T04:30:36.737Z,21.00
2023-02-15T04:33:04.670Z,28.38
2023-02-15T04:35:32.754Z,26.33
2023-02-15T04:38:01.959Z,18.05
2023-02-15T04:40:29.843Z,25.98
2023-02-15T04:42:57.624Z,20.88
2023-02-15T04:45:25.406Z,29.45
2023-02-15T04:47:53.168Z,20.30
2023-02-15T04:50:21.000Z,18.60
2023-02-15T04:52:48.985Z,26.83
2023-02-15T04:55:18.345Z,28.55
2023-02-15T04:57:46.061Z,26.02
2023-02-15T05:00:14.418Z,20.33
2023-02-15T05:02:42.115Z,20.33
2023-02-15T05:05:13.928Z,18.00
2023-02-15T05:07:41.756Z,30.30
2023-02-15T05:10:10.571Z,25.42
2023-02-15T05:12:39.712Z,18.58
2023-02-15T05:15:07.842Z,19.17
2023-02-15T05:17:35.549Z,20.35
2023-02-15T05:20:03.326Z,16.70
2023-02-15T05:22:31.129Z,26.05
2023-02-15T05:25:16.060Z,20.90
2023-02-15T05:28:17.363Z,19.63
2023-02-15T05:30:45.439Z,22.40
2023-02-15T05:33:13.357Z,18.65
2023-02-15T05:35:41.199Z,18.55
2023-02-15T05:38:08.936Z,20.10
2023-02-15T05:40:36.760Z,21.00
2023-02-15T05:43:05.825Z,20.30
2023-02-15T05:45:33.644Z,18.73
2023-02-15T05:48:01.392Z,20.08
2023-02-15T05:50:29.209Z,15.18
2023-02-15T05:52:56.958Z,15.27
2023-02-15T05:55:24.760Z,22.92
2023-02-15T05:57:52.512Z,14.13
2023-02-15T06:00:22.234Z,20.75
2023-02-15T06:02:50.165Z,16.10
2023-02-15T06:05:18.227Z,17.65
2023-02-15T06:07:46.482Z,21.88
2023-02-15T06:10:14.369Z,16.65
2023-02-15T06:12:42.125Z,21.10
2023-02-15T06:15:10.776Z,17.60
2023-02-15T06:17:39.872Z,17.27
2023-02-15T06:20:09.296Z,12.52
2023-02-15T06:22:37.095Z,14.48
2023-02-15T06:25:04.996Z,15.25
2023-02-15T06:27:32.818Z,21.45
2023-02-15T06:30:00.676Z,14.57
2023-02-15T06:32:28.400Z,14.05
2023-02-15T06:34:57.528Z,14.55
2023-02-15T06:37:25.235Z,13.98
2023-02-15T06:39:53.181Z,14.73
2023-02-15T06:42:20.991Z,19.98
2023-02-15T06:44:48.748Z,16.70
2023-02-15T06:47:16.522Z,16.00
2023-02-15T06:49:44.357Z,16.23
2023-02-15T06:52:14.299Z,18.38
2023-02-15T06:54:42.137Z,24.90
2023-02-15T06:57:10.492Z,21.83
2023-02-15T06:59:38.338Z,19.30
2023-02-15T07:02:06.144Z,15.18
2023-02-15T07:04:34.039Z,18.60
2023-02-15T07:07:01.873Z,14.02
2023-02-15T07:09:30.956Z,19.38
2023-02-15T07:12:16.082Z,16.35
2023-02-15T07:14:43.806Z,24.83
2023-02-15T07:17:27.432Z,21.40
2023-02-15T07:19:59.212Z,18.40
2023-02-15T07:22:26.955Z,19.05
2023-02-15T07:24:56.448Z,17.73
2023-02-15T07:27:24.191Z,18.65
2023-02-15T07:29:51.980Z,19.10
2023-02-15T07:32:19.799Z,20.98
2023-02-15T07:34:47.706Z,16.80
2023-02-15T07:37:15.477Z,15.93
2023-02-15T07:39:43.429Z,17.80
2023-02-15T07:42:12.556Z,20.10
2023-02-15T07:44:40.374Z,20.17
2023-02-15T07:47:08.532Z,15.07
2023-02-15T07:49:36.286Z,17.48
2023-02-15T07:52:04.131Z,22.55
2023-02-15T07:54:32.153Z,18.95
2023-02-15T07:56:59.903Z,18.42
2023-02-15T07:59:28.983Z,15.93
2023-02-15T08:01:57.511Z,19.10
2023-02-15T08:04:26.187Z,21.13
2023-02-15T08:06:55.316Z,20.65
2023-02-15T08:09:23.820Z,19.58
2023-02-15T08:11:51.789Z,17.27
2023-02-15T08:14:21.317Z,17.85
2023-02-15T08:16:52.350Z,18.65
2023-02-15T08:19:22.298Z,20.25
2023-02-15T08:21:52.484Z,22.48
2023-02-15T08:24:22.407Z,23.00
2023-02-15T08:26:50.992Z,21.50
2023-02-15T08:29:22.282Z,20.17
2023-02-15T08:31:51.827Z,25.33
2023-02-15T08:34:21.925Z,18.27
2023-02-15T08:36:49.624Z,19.30
2023-02-15T08:39:17.863Z,28.95
2023-02-15T08:41:47.021Z,21.98
2023-02-15T08:44:16.768Z,19.83
2023-02-15T08:46:46.288Z,21.40
2023-02-15T08:49:18.810Z,21.80
2023-02-15T08:51:47.254Z,23.58
2023-02-15T08:54:17.336Z,23.08
2023-02-15T08:56:47.482Z,22.15
2023-02-15T08:59:18.075Z,26.25
2023-02-15T09:01:46.651Z,27.08
2023-02-15T09:04:16.762Z,18.92
2023-02-15T09:06:48.744Z,23.13
2023-02-15T09:09:18.025Z,25.77
2023-02-15T09:11:47.226Z,21.05
2023-02-15T09:14:16.592Z,28.73
2023-02-15T09:16:47.224Z,21.33
2023-02-15T09:19:16.712Z,28.15
2023-02-15T09:21:44.484Z,24.58
2023-02-15T09:24:14.418Z,20.77
2023-02-15T09:26:45.268Z,25.10
2023-02-15T09:29:17.490Z,23.83
2023-02-15T09:31:47.259Z,21.33
2023-02-15T09:34:18.768Z,22.20
2023-02-15T09:36:47.608Z,26.10
2023-02-15T09:39:18.198Z,23.98
2023-02-15T09:42:23.031Z,24.48
2023-02-15T09:45:38.670Z,24.05
2023-02-15T09:48:28.535Z,22.50
2023-02-15T09:51:11.697Z,36.50
2023-02-15T09:53:55.245Z,21.65
2023-02-15T09:56:33.363Z,28.75
2023-02-15T09:59:11.053Z,18.95
2023-02-15T10:01:48.741Z,17.05
2023-02-15T10:04:38.085Z,23.98
2023-02-15T10:07:21.541Z,17.77
2023-02-15T10:10:04.826Z,23.73
2023-02-15T10:12:47.249Z,17.73
2023-02-15T10:15:25.362Z,20.80
2023-02-15T10:18:07.982Z,19.88
2023-02-15T10:20:47.461Z,14.45
2023-02-15T10:23:40.570Z,21.80
2023-02-15T10:26:18.599Z,23.73
2023-02-15T10:28:50.382Z,16.42
2023-02-15T10:31:29.498Z,14.38
2023-02-15T10:34:16.769Z,20.35
2023-02-15T10:37:06.303Z,16.42
2023-02-15T10:39:48.716Z,16.58
2023-02-15T10:42:28.420Z,19.17
2023-02-15T10:45:14.604Z,16.38
2023-02-15T10:48:01.641Z,15.65
2023-02-15T10:50:44.313Z,13.00
2023-02-15T10:53:26.590Z,20.30
2023-02-15T10:56:02.088Z,16.23
2023-02-15T10:58:40.800Z,14.20
2023-02-15T11:01:22.379Z,14.60
2023-02-15T11:04:32.998Z,10.80
2023-02-15T11:07:05.674Z,14.73
2023-02-15T11:09:41.154Z,12.07
2023-02-15T11:12:17.992Z,14.20
2023-02-15T11:14:51.649Z,10.40
2023-02-15T11:17:25.373Z,17.20
2023-02-15T11:20:01.678Z,11.73
2023-02-15T11:22:31.107Z,12.65
2023-02-15T11:25:00.916Z,10.43
2023-02-15T11:27:34.014Z,14.45
2023-02-15T11:30:05.282Z,15.57
2023-02-15T11:32:36.724Z,11.05
2023-02-15T11:35:12.890Z,12.73
2023-02-15T11:37:47.057Z,13.85
2023-02-15T11:40:23.222Z,13.73
2023-02-15T11:42:55.687Z,9.95
2023-02-15T11:45:29.447Z,10.73
2023-02-15T11:47:57.335Z,16.42
2023-02-15T11:50:26.794Z,12.43
2023-02-15T11:52:56.974Z,12.10
2023-02-15T11:55:26.263Z,10.77
2023-02-15T11:57:59.802Z,13.52
2023-02-15T12:00:37.009Z,11.55
2023-02-15T12:03:14.526Z,14.82
2023-02-15T12:05:46.500Z,12.82
2023-02-15T12:08:20.690Z,13.68
2023-02-15T12:11:02.932Z,12.38
2023-02-15T12:13:32.359Z,13.10
2023-02-15T12:16:09.286Z,14.40
2023-02-15T12:18:41.683Z,14.93
2023-02-15T12:21:12.858Z,9.20
2023-02-15T12:23:48.805Z,12.52
2023-02-15T12:26:25.175Z,15.23
2023-02-15T12:28:58.876Z,15.10
2023-02-15T12:31:30.988Z,15.82
2023-02-15T12:34:02.766Z,14.10
2023-02-15T12:36:33.934Z,11.63
2023-02-15T12:39:07.739Z,20.52
2023-02-15T12:41:36.199Z,16.23
2023-02-15T12:44:19.880Z,14.38
2023-02-15T12:46:59.307Z,8.52
2023-02-15T12:49:28.166Z,14.27
2023-02-15T12:51:58.001Z,15.48
2023-02-15T12:54:32.839Z,12.32
2023-02-15T12:57:01.002Z,15.98
2023-02-15T12:59:30.234Z,13.40
2023-02-15T13:01:58.090Z,14.18
2023-02-15T13:04:28.273Z,15.13
2023-02-15T13:07:00.040Z,14.85
2023-02-15T13:09:40.104Z,13.30
2023-02-15T13:12:19.868Z,10.85
2023-02-15T13:14:52.501Z,10.75
2023-02-15T13:17:25.872Z,11.38
2023-02-15T13:22:28.181Z,14.38
2023-02-15T13:24:59.652Z,19.60
2023-02-15T13:27:38.081Z,18.23
2023-02-15T13:30:22.262Z,15.75
2023-02-15T13:32:54.043Z,12.75
2023-02-15T13:35:22.760Z,12.30
2023-02-15T13:38:04.980Z,7.60
2023-02-15T13:40:38.481Z,14.77
2023-02-15T13:43:21.367Z,9.93
2023-02-15T13:46:03.630Z,16.35
2023-02-15T13:48:48.311Z,11.43
2023-02-15T13:51:23.840Z,9.73
2023-02-15T13:54:10.675Z,10.43
2023-02-15T13:56:51.096Z,12.50
2023-02-15T13:59:42.311Z,9.65
2023-02-15T14:02:32.366Z,12.98
2023-02-15T14:05:23.796Z,12.95
2023-02-15T14:08:06.104Z,11.38
2023-02-15T14:10:45.633Z,15.77
2023-02-15T14:13:39.173Z,13.27
2023-02-15T14:16:15.421Z,10.52
2023-02-15T14:18:51.165Z,19.42
2023-02-15T14:21:23.888Z,14.88
2023-02-15T14:24:10.582Z,12.73
2023-02-15T14:26:43.971Z,13.82
2023-02-15T14:29:21.055Z,11.77
2023-02-15T14:31:52.810Z,10.73
2023-02-15T14:34:26.914Z,9.27
2023-02-15T14:36:56.458Z,10.05
2023-02-15T14:39:51.779Z,12.77
2023-02-15T14:42:27.500Z,11.93
2023-02-15T14:45:04.990Z,11.00
2023-02-15T14:47:38.568Z,14.63
2023-02-15T14:50:44.015Z,13.98
2023-02-15T14:53:37.374Z,26.00
2023-02-15T14:56:21.438Z,12.02
2023-02-15T14:59:01.511Z,10.57
2023-02-15T15:01:31.731Z,12.40
2023-02-15T15:04:03.156Z,12.68
2023-02-15T15:06:33.909Z,16.77
2023-02-15T15:09:13.963Z,20.35
2023-02-15T15:11:48.036Z,11.15
2023-02-15T15:14:44.151Z,16.30
2023-02-15T15:17:14.167Z,11.98
2023-02-15T15:20:09.205Z,12.07
2023-02-15T15:22:38.365Z,10.23
2023-02-15T15:25:12.498Z,14.15
2023-02-15T15:27:51.517Z,11.68
2023-02-15T15:30:49.609Z,15.32
2023-02-15T15:33:45.918Z,9.23
2023-02-15T15:36:31.127Z,11.27
2023-02-15T15:39:14.370Z,11.68
2023-02-15T15:41:45.940Z,11.45
2023-02-15T15:44:45.345Z,12.02
2023-02-15T15:47:27.461Z,15.65
2023-02-15T15:49:58.895Z,12.65
2023-02-15T15:52:29.153Z,9.73
2023-02-15T15:54:59.435Z,14.77
2023-02-15T15:57:31.924Z,12.23
2023-02-15T16:00:00.732Z,14.38
2023-02-15T16:02:29.774Z,11.52
2023-02-15T16:05:09.153Z,7.15
2023-02-15T16:07:36.889Z,10.25
2023-02-15T16:10:06.892Z,11.52
2023-02-15T16:12:39.073Z,10.25
2023-02-15T16:15:17.051Z,17.38
2023-02-15T16:17:47.417Z,9.88
2023-02-15T16:20:19.620Z,10.63
2023-02-15T16:22:50.052Z,8.77
2023-02-15T16:25:33.533Z,8.98
2023-02-15T16:28:08.787Z,10.48
2023-02-15T16:30:38.029Z,10.45
2023-02-15T16:33:08.367Z,8.65
2023-02-15T16:35:37.287Z,17.10
2023-02-15T16:38:05.604Z,13.90
2023-02-15T16:40:47.754Z,10.02
2023-02-15T16:43:25.517Z,11.77
2023-02-15T16:45:56.382Z,10.25
2023-02-15T16:48:28.729Z,14.65
2023-02-15T16:50:59.402Z,10.97
2023-02-15T16:53:29.034Z,12.30
2023-02-15T16:55:59.046Z,10.13
2023-02-15T16:58:33.425Z,12.68
2023-02-15T17:01:03.851Z,10.88
2023-02-15T17:03:32.030Z,11.32
2023-02-15T17:06:01.493Z,11.82
2023-02-15T17:08:32.580Z,20.67
2023-02-15T17:11:13.547Z,10.50
2023-02-15T17:14:29.573Z,10.18
2023-02-15T17:17:03.915Z,11.38
2023-02-15T17:19:34.010Z,11.43
2023-02-15T17:22:05.116Z,11.77
2023-02-15T17:24:42.167Z,10.95
2023-02-15T17:27:17.074Z,9.77
2023-02-15T17:29:49.251Z,9.50
2023-02-15T17:32:22.001Z,13.52
2023-02-15T17:35:11.147Z,10.73
2023-02-15T17:37:48.547Z,11.30
2023-02-15T17:40:25.828Z,13.80
2023-02-15T17:42:54.023Z,11.15
2023-02-15T17:45:22.779Z,13.48
2023-02-15T17:47:52.156Z,11.82
2023-02-15T17:50:22.990Z,9.32
2023-02-15T17:52:51.043Z,12.98
2023-02-15T17:55:39.028Z,10.40
2023-02-15T17:58:09.631Z,11.48
2023-02-15T18:00:57.520Z,11.93
2023-02-15T18:03:48.133Z,13.57
2023-02-15T18:06:34.162Z,9.43
2023-02-15T18:09:19.579Z,10.18
2023-02-15T18:11:49.081Z,13.43
2023-02-15T18:14:16.795Z,9.60
2023-02-15T18:16:46.209Z,12.02
2023-02-15T18:19:19.480Z,8.77
2023-02-15T18:21:48.074Z,14.35
2023-02-15T18:24:18.462Z,14.00
2023-02-15T18:26:46.638Z,9.93
2023-02-15T18:29:14.477Z,19.25
2023-02-15T18:31:43.766Z,18.65
2023-02-15T18:34:24.947Z,9.35
2023-02-15T18:36:54.092Z,14.23
2023-02-15T18:39:30.301Z,14.35
2023-02-15T18:41:59.177Z,9.57
2023-02-15T18:44:28.555Z,12.88
2023-02-15T18:46:56.656Z,8.88
2023-02-15T18:49:25.989Z,14.50
2023-02-15T18:51:54.341Z,10.15
2023-02-15T18:54:24.977Z,12.55
2023-02-15T18:56:56.545Z,21.35
2023-02-15T18:59:25.469Z,16.40
2023-02-15T19:01:53.275Z,19.20
2023-02-15T19:04:21.151Z,12.25
2023-02-15T19:06:50.956Z,8.65
2023-02-15T19:09:22.458Z,15.00
2023-02-15T19:11:52.910Z,9.38
2023-02-15T19:14:26.969Z,13.48
2023-02-15T19:16:55.473Z,14.55
2023-02-15T19:19:23.828Z,11.75
2023-02-15T19:21:53.614Z,11.93
2023-02-15T19:24:25.228Z,17.95
2023-02-15T19:26:53.741Z,17.48
2023-02-15T19:29:26.482Z,14.65
2023-02-15T19:31:54.432Z,15.52
2023-02-15T19:34:22.464Z,11.38
2023-02-15T19:36:54.352Z,10.23
2023-02-15T19:39:28.326Z,12.38
2023-02-15T19:41:56.559Z,10.40
2023-02-15T19:44:24.331Z,12.68
2023-02-15T19:46:52.075Z,14.32
2023-02-15T19:49:19.929Z,11.30
2023-02-15T19:51:48.086Z,13.98
2023-02-15T19:54:29.261Z,11.23
2023-02-15T19:56:57.244Z,10.95
2023-02-15T19:59:26.368Z,10.95
2023-02-15T20:01:54.206Z,15.27
2023-02-15T20:04:22.002Z,14.80
2023-02-15T20:06:51.907Z,16.20
2023-02-15T20:09:25.363Z,12.18
2023-02-15T20:14:21.161Z,13.88
2023-02-15T20:16:49.191Z,12.00
2023-02-15T20:19:17.391Z,12.48
2023-02-15T20:21:51.784Z,9.43
2023-02-15T20:24:23.120Z,15.68
2023-02-15T20:26:50.914Z,23.40
2023-02-15T20:29:20.162Z,14.27
2023-02-15T20:31:47.981Z,12.43
2023-02-15T20:34:15.982Z,15.30
2023-02-15T20:36:44.175Z,13.45
2023-02-15T20:39:17.380Z,10.68
2023-02-15T20:41:48.461Z,11.60
2023-02-15T20:44:20.604Z,14.00
2023-02-15T20:46:49.836Z,15.02
2023-02-15T20:49:18.163Z,13.10
2023-02-15T20:51:48.232Z,15.18
2023-02-15T20:54:19.228Z,13.82
2023-02-15T20:56:50.485Z,10.50
2023-02-15T20:59:25.325Z,11.48
2023-02-15T21:01:57.605Z,11.00
2023-02-15T21:04:33.734Z,10.93
2023-02-15T21:07:02.296Z,9.68
2023-02-15T21:09:30.545Z,13.07
2023-02-15T21:12:02.560Z,14.45
2023-02-15T21:14:31.017Z,10.70
2023-02-15T21:16:58.812Z,12.00
2023-02-15T21:19:26.642Z,18.58
2023-02-15T21:21:55.086Z,8.90
2023-02-15T21:24:25.350Z,10.90
2023-02-15T21:26:54.399Z,12.13
2023-02-15T21:29:26.239Z,10.18
2023-02-15T21:31:54.256Z,11.02
2023-02-15T21:34:22.223Z,19.67
2023-02-15T21:36:50.697Z,13.60
2023-02-15T21:39:22.129Z,13.80
2023-02-15T21:42:09.325Z,8.82
2023-02-15T21:44:55.901Z,8.63
2023-02-15T21:47:43.314Z,10.60
2023-02-15T21:50:30.853Z,14.13
2023-02-15T21:52:59.381Z,16.92
2023-02-15T21:55:28.007Z,15.25
2023-02-15T21:57:55.963Z,11.85
2023-02-15T22:00:26.433Z,13.00
2023-02-15T22:02:58.112Z,16.75
2023-02-15T22:05:29.344Z,9.57
2023-02-15T22:07:57.784Z,19.23
2023-02-15T22:10:29.865Z,21.27
2023-02-15T22:12:57.932Z,12.13
2023-02-15T22:15:30.139Z,8.52
2023-02-15T22:17:57.856Z,11.52
2023-02-15T22:20:25.830Z,11.30
2023-02-15T22:22:54.074Z,14.23
2023-02-15T22:25:24.124Z,11.02
2023-02-15T22:27:54.300Z,12.60
2023-02-15T22:30:28.695Z,12.38
2023-02-15T22:32:58.114Z,8.35
2023-02-15T22:35:28.196Z,10.95
2023-02-15T22:37:56.813Z,9.70
2023-02-15T22:40:30.155Z,10.13
2023-02-15T22:43:00.719Z,10.18
2023-02-15T22:45:30.216Z,12.93
2023-02-15T22:48:00.623Z,15.48
2023-02-15T22:50:30.762Z,12.25
2023-02-15T22:53:00.806Z,15.18
2023-02-15T22:55:32.537Z,18.13
2023-02-15T22:58:00.695Z,18.77
2023-02-15T23:00:33.490Z,14.45
2023-02-15T23:03:02.270Z,13.35
2023-02-15T23:05:32.000Z,13.18
2023-02-15T23:07:59.839Z,16.15
2023-02-15T23:10:27.931Z,14.20
2023-02-15T23:13:14.676Z,16.30
2023-02-15T23:15:45.931Z,12.82
2023-02-15T23:18:19.162Z,11.48
2023-02-15T23:20:48.241Z,10.15
2023-02-15T23:23:16.718Z,12.77
2023-02-15T23:25:44.551Z,14.05
2023-02-15T23:28:20.728Z,28.05
2023-02-15T23:30:50.432Z,14.00
2023-02-15T23:33:21.203Z,18.00
2023-02-15T23:35:50.075Z,12.13
2023-02-15T23:38:23.381Z,12.32
2023-02-15T23:41:12.857Z,8.27
2023-02-15T23:43:44.102Z,14.50
2023-02-15T23:46:23.023Z,11.85
2023-02-15T23:48:50.731Z,11.52
2023-02-15T23:51:18.786Z,12.88
2023-02-15T23:53:46.652Z,12.25
2023-02-15T23:56:15.072Z,11.70
2023-02-15T23:58:44.937Z,10.55
